createdAt,value
2018-04-01T00:01:55.475Z,1.60
2018-04-01T00:04:24.028Z,1.70
2018-04-01T00:06:53.741Z,1.70
2018-04-01T00:09:22.499Z,1.70
2018-04-01T00:11:50.999Z,1.70
2018-04-01T00:14:19.537Z,1.60
2018-04-01T00:16:50.039Z,1.70
2018-04-01T00:19:18.606Z,1.70
2018-04-01T00:21:47.074Z,1.70
2018-04-01T00:24:15.856Z,1.70
2018-04-01T00:26:44.647Z,1.80
2018-04-01T00:29:13.143Z,1.70
2018-04-01T00:31:41.598Z,1.70
2018-04-01T00:34:10.106Z,1.70
2018-04-01T00:36:38.879Z,1.60
2018-04-01T00:39:07.390Z,1.70
2018-04-01T00:41:36.822Z,1.80
2018-04-01T00:44:06.667Z,1.80
2018-04-01T00:46:35.290Z,1.80
2018-04-01T00:49:04.519Z,1.70
2018-04-01T00:51:33.004Z,1.70
2018-04-01T00:54:01.714Z,1.70
2018-04-01T00:56:30.422Z,1.80
2018-04-01T00:58:58.875Z,1.80
2018-04-01T01:01:27.364Z,2.00
2018-04-01T01:03:55.919Z,1.70
2018-04-01T01:06:25.446Z,1.60
2018-04-01T01:08:53.906Z,1.60
2018-04-01T01:11:23.106Z,1.70
2018-04-01T01:13:52.025Z,1.70
2018-04-01T01:16:20.519Z,1.60
2018-04-01T01:18:49.253Z,1.70
2018-04-01T01:21:17.870Z,1.60
2018-04-01T01:23:47.098Z,1.70
2018-04-01T01:26:15.570Z,1.70
2018-04-01T01:28:44.363Z,1.70
2018-04-01T01:31:13.096Z,1.70
2018-04-01T01:33:42.315Z,1.60
2018-04-01T01:36:10.786Z,1.60
2018-04-01T01:38:39.223Z,1.50
2018-04-01T01:41:07.734Z,1.70
2018-04-01T01:43:37.016Z,1.80
2018-04-01T01:46:05.702Z,1.80
2018-04-01T01:48:34.142Z,1.60
2018-04-01T01:51:02.604Z,1.60
2018-04-01T01:53:31.063Z,1.70
2018-04-01T01:56:00.659Z,1.70
2018-04-01T01:58:29.902Z,1.70
2018-04-01T02:00:58.366Z,1.70
2018-04-01T02:03:27.274Z,1.70
2018-04-01T02:05:55.887Z,1.80
2018-04-01T02:08:24.377Z,1.70
2018-04-01T02:10:53.074Z,1.80
2018-04-01T02:13:22.283Z,1.70
2018-04-01T02:15:50.987Z,1.60
2018-04-01T02:18:19.447Z,1.60
2018-04-01T02:20:48.202Z,1.50
2018-04-01T02:23:17.834Z,1.70
2018-04-01T02:25:47.055Z,1.70
2018-04-01T02:28:15.578Z,1.70
2018-04-01T02:30:44.091Z,1.70
2018-04-01T02:33:13.583Z,1.70
2018-04-01T02:35:42.044Z,1.70
2018-04-01T02:38:12.008Z,1.80
2018-04-01T02:40:40.443Z,1.70
2018-04-01T02:43:09.227Z,1.70
2018-04-01T02:45:37.683Z,1.60
2018-04-01T02:48:06.192Z,1.60
2018-04-01T02:50:34.903Z,1.60
2018-04-01T02:53:04.142Z,1.70
2018-04-01T02:55:32.889Z,1.60
2018-04-01T02:58:02.118Z,1.80
2018-04-01T03:00:30.963Z,1.80
2018-04-01T03:03:00.200Z,1.90
2018-04-01T03:05:28.647Z,1.90
2018-04-01T03:07:58.127Z,1.90
2018-04-01T03:10:26.586Z,1.90
2018-04-01T03:12:55.107Z,1.90
2018-04-01T03:15:23.548Z,1.90
2018-04-01T03:17:52.363Z,1.80
2018-04-01T03:20:20.853Z,1.70
2018-04-01T03:22:50.115Z,1.80
2018-04-01T03:25:18.959Z,1.80
2018-04-01T03:27:48.206Z,1.70
2018-04-01T03:30:16.707Z,1.70
2018-04-01T03:32:46.110Z,1.50
2018-04-01T03:35:15.044Z,1.70
2018-04-01T03:37:43.826Z,1.70
2018-04-01T03:40:12.436Z,1.80
2018-04-01T03:42:40.911Z,1.80
2018-04-01T03:45:09.447Z,1.90
2018-04-01T03:47:38.197Z,1.90
2018-04-01T03:50:07.468Z,1.90
2018-04-01T03:52:35.924Z,1.80
2018-04-01T03:55:04.456Z,1.80
2018-04-01T03:57:32.915Z,1.80
2018-04-01T04:00:02.147Z,1.80
2018-04-01T04:02:31.068Z,1.70
2018-04-01T04:04:59.819Z,1.60
2018-04-01T04:07:28.427Z,1.70
2018-04-01T04:09:57.219Z,1.60
2018-04-01T04:12:25.746Z,1.60
2018-04-01T04:14:54.374Z,1.60
2018-04-01T04:17:24.619Z,1.70
2018-04-01T04:19:53.846Z,1.70
2018-04-01T04:22:22.283Z,1.70
2018-04-01T04:24:50.739Z,1.70
2018-04-01T04:27:19.716Z,1.80
2018-04-01T04:29:48.465Z,1.80
2018-04-01T04:32:17.727Z,1.70
2018-04-01T04:34:46.518Z,1.70
2018-04-01T04:37:14.966Z,1.70
2018-04-01T04:39:43.557Z,1.80
2018-04-01T04:42:12.991Z,1.80
2018-04-01T04:44:41.443Z,1.80
2018-04-01T04:47:09.927Z,1.80
2018-04-01T04:49:38.779Z,1.80
2018-04-01T04:52:07.613Z,1.80
2018-04-01T04:54:36.207Z,1.80
2018-04-01T04:57:04.736Z,1.80
2018-04-01T04:59:33.990Z,1.70
2018-04-01T05:02:03.536Z,1.60
2018-04-01T05:04:31.999Z,1.60
2018-04-01T05:07:01.243Z,1.70
2018-04-01T05:09:29.750Z,1.70
2018-04-01T05:11:59.315Z,1.80
2018-04-01T05:14:27.886Z,1.80
2018-04-01T05:16:57.130Z,1.70
2018-04-01T05:19:25.971Z,1.70
2018-04-01T05:21:54.583Z,1.70
2018-04-01T05:24:23.062Z,1.60
2018-04-01T05:26:51.772Z,1.70
2018-04-01T05:29:20.248Z,1.80
2018-04-01T05:31:48.712Z,1.90
2018-04-01T05:34:17.551Z,1.80
2018-04-01T05:36:46.768Z,1.90
2018-04-01T05:39:15.254Z,1.80
2018-04-01T05:41:43.990Z,1.80
2018-04-01T05:44:14.409Z,2.00
2018-04-01T05:46:43.635Z,1.90
2018-04-01T05:49:12.240Z,1.90
2018-04-01T05:51:40.702Z,2.00
2018-04-01T05:54:10.674Z,2.00
2018-04-01T05:56:39.130Z,2.00
2018-04-01T05:59:07.575Z,2.00
2018-04-01T06:01:36.882Z,2.00
2018-04-01T06:04:05.342Z,2.00
2018-04-01T06:06:34.074Z,2.00
2018-04-01T06:09:02.537Z,2.10
2018-04-01T06:11:31.858Z,2.10
2018-04-01T06:14:00.311Z,2.10
2018-04-01T06:16:29.778Z,2.30
2018-04-01T06:18:59.013Z,2.30
2018-04-01T06:21:28.227Z,2.10
2018-04-01T06:23:56.974Z,2.10
2018-04-01T06:26:25.497Z,2.10
2018-04-01T06:28:53.987Z,2.10
2018-04-01T06:31:22.718Z,1.90
2018-04-01T06:33:51.436Z,2.00
2018-04-01T06:36:20.650Z,2.00
2018-04-01T06:38:49.906Z,2.10
2018-04-01T06:41:19.390Z,2.20
2018-04-01T06:43:48.715Z,2.20
2018-04-01T06:46:18.011Z,2.30
2018-04-01T06:48:46.782Z,2.30
2018-04-01T06:51:16.042Z,2.60
2018-04-01T06:53:44.508Z,2.60
2018-04-01T06:56:13.010Z,2.70
2018-04-01T06:58:41.726Z,2.50
2018-04-01T07:01:12.069Z,2.60
2018-04-01T07:03:40.529Z,2.60
2018-04-01T07:06:10.390Z,2.60
2018-04-01T07:08:39.077Z,2.60
2018-04-01T07:11:07.582Z,2.60
2018-04-01T07:13:37.265Z,2.90
2018-04-01T07:16:05.907Z,2.90
2018-04-01T07:18:35.141Z,3.00
2018-04-01T07:21:03.895Z,3.00
2018-04-01T07:23:33.235Z,2.90
2018-04-01T07:26:01.729Z,2.80
2018-04-01T07:28:30.554Z,2.90
2018-04-01T07:30:59.006Z,3.00
2018-04-01T07:33:27.512Z,3.10
2018-04-01T07:35:55.998Z,3.20
2018-04-01T07:38:24.935Z,3.20
2018-04-01T07:40:53.400Z,3.20
2018-04-01T07:43:22.623Z,3.20
2018-04-01T07:45:51.449Z,3.20
2018-04-01T07:48:20.006Z,3.10
2018-04-01T07:50:48.474Z,3.10
2018-04-01T07:53:17.635Z,3.20
2018-04-01T07:55:46.874Z,3.20
2018-04-01T07:58:16.467Z,3.20
2018-04-01T08:00:45.236Z,3.10
2018-04-01T08:03:14.632Z,3.10
2018-04-01T08:05:44.110Z,3.10
2018-04-01T08:08:13.056Z,2.70
2018-04-01T08:10:41.713Z,2.80
2018-04-01T08:13:10.932Z,2.80
2018-04-01T08:15:39.745Z,2.80
2018-04-01T08:18:08.221Z,2.90
2018-04-01T08:20:36.743Z,3.00
2018-04-01T08:23:05.655Z,3.10
2018-04-01T08:25:34.986Z,3.30
2018-04-01T08:28:03.514Z,3.30
2018-04-01T08:30:33.095Z,3.20
2018-04-01T08:33:01.646Z,3.20
2018-04-01T08:35:32.056Z,3.20
2018-04-01T08:38:00.883Z,3.20
2018-04-01T08:40:29.395Z,3.20
2018-04-01T08:42:57.860Z,3.30
2018-04-01T08:45:26.600Z,3.60
2018-04-01T08:47:55.818Z,3.70
2018-04-01T08:50:24.258Z,3.70
2018-04-01T08:52:53.752Z,3.70
2018-04-01T08:55:22.314Z,3.60
2018-04-01T08:57:50.845Z,3.50
2018-04-01T09:00:19.634Z,3.60
2018-04-01T09:02:48.091Z,3.20
2018-04-01T09:05:17.345Z,3.40
2018-04-01T09:07:46.086Z,3.40
2018-04-01T09:10:14.556Z,3.30
2018-04-01T09:12:43.787Z,3.80
2018-04-01T09:15:12.583Z,3.70
2018-04-01T09:17:41.055Z,4.00
2018-04-01T09:20:09.503Z,4.00
2018-04-01T09:22:38.711Z,5.00
2018-04-01T09:25:08.262Z,5.20
2018-04-01T09:27:36.815Z,5.10
2018-04-01T09:30:05.303Z,4.80
2018-04-01T09:32:34.046Z,4.80
2018-04-01T09:35:02.746Z,5.10
2018-04-01T09:37:31.980Z,5.30
2018-04-01T09:40:01.095Z,5.20
2018-04-01T09:42:29.579Z,5.00
2018-04-01T09:44:58.030Z,5.00
2018-04-01T09:47:26.814Z,5.00
2018-04-01T09:49:55.289Z,4.80
2018-04-01T09:52:23.755Z,4.90
2018-04-01T09:54:53.230Z,4.70
2018-04-01T09:57:21.851Z,4.60
2018-04-01T09:59:50.651Z,4.40
2018-04-01T10:02:21.412Z,4.30
2018-04-01T10:04:55.702Z,4.40
2018-04-01T10:07:26.835Z,4.50
2018-04-01T10:09:57.186Z,4.50
2018-04-01T10:12:27.582Z,4.70
2018-04-01T10:14:58.153Z,4.70
2018-04-01T10:17:28.530Z,4.50
2018-04-01T10:19:58.996Z,4.50
2018-04-01T10:22:29.592Z,4.70
2018-04-01T10:24:59.927Z,5.00
2018-04-01T10:27:30.267Z,5.20
2018-04-01T10:30:00.894Z,5.20
2018-04-01T10:32:31.584Z,5.20
2018-04-01T10:35:02.626Z,5.70
2018-04-01T10:37:33.742Z,5.70
2018-04-01T10:40:04.211Z,5.80
2018-04-01T10:42:34.526Z,6.00
2018-04-01T10:45:05.150Z,5.90
2018-04-01T10:47:35.579Z,5.40
2018-04-01T10:50:05.975Z,5.10
2018-04-01T10:52:36.656Z,4.90
2018-04-01T10:55:05.376Z,5.20
2018-04-01T10:57:34.529Z,5.20
2018-04-01T11:00:03.119Z,5.10
2018-04-01T11:02:31.579Z,4.60
2018-04-01T11:05:00.267Z,4.60
2018-04-01T11:07:29.016Z,4.40
2018-04-01T11:09:57.513Z,4.50
2018-04-01T11:12:25.982Z,4.80
2018-04-01T11:14:54.754Z,5.30
2018-04-01T11:17:23.501Z,5.40
2018-04-01T11:19:52.736Z,5.50
2018-04-01T11:22:21.523Z,5.50
2018-04-01T11:24:49.999Z,5.20
2018-04-01T11:27:18.454Z,5.10
2018-04-01T11:29:48.342Z,5.20
2018-04-01T11:32:17.569Z,5.30
2018-04-01T11:34:46.022Z,5.30
2018-04-01T11:37:15.498Z,5.00
2018-04-01T11:39:43.960Z,5.00
2018-04-01T11:42:12.460Z,5.10
2018-04-01T11:44:41.162Z,5.20
2018-04-01T11:47:09.598Z,5.10
2018-04-01T11:49:38.040Z,5.10
2018-04-01T11:52:07.535Z,5.10
2018-04-01T11:54:36.772Z,5.20
2018-04-01T11:57:05.234Z,5.20
2018-04-01T11:59:34.070Z,5.60
2018-04-01T12:02:02.575Z,5.60
2018-04-01T12:04:31.020Z,5.80
2018-04-01T12:06:59.719Z,5.70
2018-04-01T12:09:28.200Z,5.60
2018-04-01T12:11:56.778Z,5.50
2018-04-01T12:14:25.542Z,5.30
2018-04-01T12:16:54.038Z,4.90
2018-04-01T12:19:22.685Z,5.30
2018-04-01T12:21:51.461Z,5.40
2018-04-01T12:24:19.928Z,5.70
2018-04-01T12:26:49.165Z,5.90
2018-04-01T12:29:17.894Z,5.90
2018-04-01T12:31:46.341Z,6.50
2018-04-01T12:34:14.801Z,6.70
2018-04-01T12:36:43.924Z,6.70
2018-04-01T12:39:12.622Z,6.70
2018-04-01T12:41:41.370Z,6.40
2018-04-01T12:44:09.806Z,6.10
2018-04-01T12:46:38.242Z,6.10
2018-04-01T12:49:06.695Z,6.60
2018-04-01T12:51:35.427Z,7.00
2018-04-01T12:54:03.911Z,7.40
2018-04-01T12:56:35.104Z,7.10
2018-04-01T12:59:05.223Z,7.10
2018-04-01T13:01:33.767Z,7.20
2018-04-01T13:04:02.222Z,7.30
2018-04-01T13:06:30.941Z,7.50
2018-04-01T13:08:59.418Z,8.00
2018-04-01T13:11:27.964Z,8.20
2018-04-01T13:13:56.773Z,8.40
2018-04-01T13:16:25.240Z,8.90
2018-04-01T13:18:53.953Z,9.50
2018-04-01T13:21:22.682Z,8.20
2018-04-01T13:23:51.143Z,8.10
2018-04-01T13:26:20.352Z,8.10
2018-04-01T13:28:49.835Z,8.40
2018-04-01T13:31:19.080Z,7.90
2018-04-01T13:33:47.562Z,7.90
2018-04-01T13:36:16.302Z,7.50
2018-04-01T13:38:45.522Z,7.20
2018-04-01T13:41:13.970Z,7.20
2018-04-01T13:43:42.413Z,7.50
2018-04-01T13:46:11.138Z,7.30
2018-04-01T13:48:39.653Z,7.00
2018-04-01T13:51:08.123Z,7.00
2018-04-01T13:53:37.608Z,7.30
2018-04-01T13:56:07.023Z,7.30
2018-04-01T13:58:36.295Z,7.70
2018-04-01T14:01:05.090Z,7.70
2018-04-01T14:03:33.710Z,7.10
2018-04-01T14:06:02.417Z,6.90
2018-04-01T14:08:31.254Z,6.80
2018-04-01T14:11:00.476Z,7.00
2018-04-01T14:13:29.025Z,7.00
2018-04-01T14:15:58.564Z,6.90
2018-04-01T14:18:27.742Z,6.90
2018-04-01T14:20:56.970Z,7.50
2018-04-01T14:23:25.486Z,7.50
2018-04-01T14:25:54.235Z,7.70
2018-04-01T14:28:22.702Z,7.70
2018-04-01T14:30:51.896Z,7.30
2018-04-01T14:33:20.671Z,7.20
2018-04-01T14:35:50.103Z,6.90
2018-04-01T14:38:18.562Z,6.90
2018-04-01T14:40:47.833Z,6.20
2018-04-01T14:43:16.588Z,6.20
2018-04-01T14:45:45.867Z,6.20
2018-04-01T14:48:14.582Z,6.20
2018-04-01T14:50:43.290Z,7.00
2018-04-01T14:53:11.727Z,7.80
2018-04-01T14:55:40.173Z,7.90
2018-04-01T14:58:09.639Z,8.10
2018-04-01T15:00:38.132Z,8.00
2018-04-01T15:03:06.630Z,7.00
2018-04-01T15:05:35.364Z,6.90
2018-04-01T15:08:03.794Z,7.10
2018-04-01T15:10:32.290Z,7.30
2018-04-01T15:13:00.779Z,7.40
2018-04-01T15:15:29.222Z,7.80
2018-04-01T15:17:57.943Z,7.50
2018-04-01T15:20:27.164Z,8.40
2018-04-01T15:22:56.519Z,8.40
2018-04-01T15:25:25.264Z,8.10
2018-04-01T15:27:53.714Z,7.80
2018-04-01T15:30:22.403Z,7.60
2018-04-01T15:32:51.026Z,7.50
2018-04-01T15:35:19.651Z,8.40
2018-04-01T15:37:48.885Z,7.90
2018-04-01T15:40:17.395Z,7.90
2018-04-01T15:42:46.155Z,8.50
2018-04-01T15:45:14.676Z,8.60
2018-04-01T15:47:43.135Z,8.60
2018-04-01T15:50:12.000Z,8.50
2018-04-01T15:52:40.486Z,8.70
2018-04-01T15:55:08.955Z,8.40
2018-04-01T15:57:37.673Z,8.40
2018-04-01T16:00:06.140Z,8.60
2018-04-01T16:02:34.634Z,8.60
2018-04-01T16:05:03.188Z,7.60
2018-04-01T16:07:31.933Z,6.80
2018-04-01T16:10:00.363Z,6.80
2018-04-01T16:12:28.819Z,7.40
2018-04-01T16:14:57.528Z,7.50
2018-04-01T16:17:26.281Z,7.30
2018-04-01T16:19:55.538Z,7.70
2018-04-01T16:22:24.262Z,7.70
2018-04-01T16:24:53.048Z,8.20
2018-04-01T16:27:22.275Z,8.00
2018-04-01T16:29:51.915Z,8.20
2018-04-01T16:32:20.519Z,8.10
2018-04-01T16:34:50.009Z,7.40
2018-04-01T16:37:18.461Z,7.40
2018-04-01T16:39:46.883Z,7.50
2018-04-01T16:42:15.658Z,7.80
2018-04-01T16:44:44.175Z,7.50
2018-04-01T16:47:12.683Z,7.60
2018-04-01T16:49:41.395Z,7.50
2018-04-01T16:52:09.953Z,7.40
2018-04-01T16:54:38.415Z,7.90
2018-04-01T16:57:07.122Z,8.30
2018-04-01T16:59:35.591Z,8.00
2018-04-01T17:02:04.042Z,7.60
2018-04-01T17:04:33.678Z,7.30
2018-04-01T17:07:02.129Z,7.30
2018-04-01T17:09:31.451Z,7.10
2018-04-01T17:12:00.960Z,7.10
2018-04-01T17:14:29.682Z,7.00
2018-04-01T17:16:58.169Z,6.90
2018-04-01T17:19:26.743Z,7.00
2018-04-01T17:21:55.252Z,6.60
2018-04-01T17:24:24.254Z,6.40
2018-04-01T17:26:52.734Z,6.00
2018-04-01T17:29:21.954Z,5.90
2018-04-01T17:31:50.646Z,5.90
2018-04-01T17:34:19.178Z,5.90
2018-04-01T17:36:47.673Z,5.50
2018-04-01T17:39:16.927Z,5.20
2018-04-01T17:41:45.390Z,5.20
2018-04-01T17:44:14.111Z,5.10
2018-04-01T17:46:42.834Z,4.70
2018-04-01T17:49:11.303Z,4.50
2018-04-01T17:51:40.797Z,4.00
2018-04-01T17:54:10.931Z,3.90
2018-04-01T17:56:40.193Z,3.90
2018-04-01T17:59:09.050Z,3.90
2018-04-01T18:01:37.526Z,3.80
2018-04-01T18:04:05.998Z,3.80
2018-04-01T18:06:34.691Z,3.70
2018-04-01T18:09:03.227Z,3.60
2018-04-01T18:11:31.781Z,3.50
2018-04-01T18:14:00.231Z,3.50
2018-04-01T18:16:28.701Z,3.40
2018-04-01T18:18:57.477Z,3.40
2018-04-01T18:21:26.783Z,3.20
2018-04-01T18:23:55.598Z,3.20
2018-04-01T18:26:25.386Z,3.20
2018-04-01T18:28:53.884Z,3.20
2018-04-01T18:31:22.347Z,3.10
2018-04-01T18:33:51.203Z,3.10
2018-04-01T18:36:19.659Z,3.00
2018-04-01T18:38:48.114Z,3.00
2018-04-01T18:41:17.142Z,2.90
2018-04-01T18:43:45.666Z,2.90
2018-04-01T18:46:14.219Z,2.80
2018-04-01T18:48:43.028Z,2.80
2018-04-01T18:51:12.260Z,2.70
2018-04-01T18:53:41.794Z,2.70
2018-04-01T18:56:10.945Z,2.60
2018-04-01T18:58:39.514Z,2.50
2018-04-01T19:01:07.998Z,2.50
2018-04-01T19:03:36.576Z,2.40
2018-04-01T19:06:06.055Z,2.40
2018-04-01T19:08:34.518Z,2.40
2018-04-01T19:11:02.967Z,2.30
2018-04-01T19:13:31.755Z,2.30
2018-04-01T19:16:01.833Z,2.30
2018-04-01T19:18:32.883Z,2.30
2018-04-01T19:21:03.480Z,2.30
2018-04-01T19:23:34.596Z,2.20
2018-04-01T19:26:05.336Z,2.10
2018-04-01T19:28:35.980Z,2.10
2018-04-01T19:31:07.093Z,2.10
2018-04-01T19:33:37.558Z,2.10
2018-04-01T19:36:08.418Z,2.10
2018-04-01T19:38:38.758Z,2.10
2018-04-01T19:41:09.074Z,2.10
2018-04-01T19:43:39.524Z,2.00
2018-04-01T19:46:10.194Z,2.00
2018-04-01T19:48:41.291Z,2.00
2018-04-01T19:51:11.911Z,2.00
2018-04-01T19:53:42.321Z,2.00
2018-04-01T19:56:12.987Z,2.00
2018-04-01T19:58:43.346Z,2.00
2018-04-01T20:01:14.015Z,2.00
2018-04-01T20:03:44.477Z,1.90
2018-04-01T20:06:14.870Z,1.90
2018-04-01T20:08:45.577Z,1.90
2018-04-01T20:11:15.992Z,1.90
2018-04-01T20:13:46.778Z,1.90
2018-04-01T20:16:19.018Z,1.90
2018-04-01T20:18:49.365Z,1.80
2018-04-01T20:21:19.923Z,1.90
2018-04-01T20:23:50.648Z,1.80
2018-04-01T20:26:21.092Z,1.90
2018-04-01T20:28:52.335Z,1.80
2018-04-01T20:31:23.606Z,1.80
2018-04-01T20:33:54.197Z,1.90
2018-04-01T20:36:24.904Z,1.80
2018-04-01T20:38:55.356Z,1.70
2018-04-01T20:41:26.879Z,1.70
2018-04-01T20:43:57.535Z,1.70
2018-04-01T20:46:28.238Z,1.70
2018-04-01T20:48:58.919Z,1.70
2018-04-01T20:51:29.401Z,1.70
2018-04-01T20:53:59.819Z,1.60
2018-04-01T20:56:30.210Z,1.70
2018-04-01T20:59:00.846Z,1.70
2018-04-01T21:01:31.414Z,1.60
2018-04-01T21:04:01.847Z,1.60
2018-04-01T21:06:32.609Z,1.60
2018-04-01T21:09:04.084Z,1.60
2018-04-01T21:11:34.778Z,1.70
2018-04-01T21:14:05.700Z,1.50
2018-04-01T21:16:37.225Z,1.50
2018-04-01T21:19:08.266Z,1.50
2018-04-01T21:21:41.170Z,1.50
2018-04-01T21:24:12.820Z,1.40
2018-04-01T21:26:43.587Z,1.40
2018-04-01T21:29:14.536Z,1.40
2018-04-01T21:31:45.291Z,1.30
2018-04-01T21:34:15.784Z,1.40
2018-04-01T21:36:46.320Z,1.40
2018-04-01T21:39:17.014Z,1.40
2018-04-01T21:41:47.343Z,1.30
2018-04-01T21:44:17.711Z,1.30
2018-04-01T21:46:48.622Z,1.40
2018-04-01T21:49:19.603Z,1.30
2018-04-01T21:51:50.766Z,1.30
2018-04-01T21:54:21.406Z,1.30
2018-04-01T21:56:52.260Z,1.30
2018-04-01T21:59:22.611Z,1.30
2018-04-01T22:01:53.274Z,1.20
2018-04-01T22:04:23.651Z,1.20
2018-04-01T22:06:53.984Z,1.20
2018-04-01T22:09:24.301Z,1.10
2018-04-01T22:11:55.539Z,1.10
2018-04-01T22:14:25.950Z,1.20
2018-04-01T22:16:56.371Z,1.10
2018-04-01T22:19:27.042Z,1.00
2018-04-01T22:21:58.478Z,1.00
2018-04-01T22:24:29.040Z,0.90
2018-04-01T22:26:59.809Z,0.90
2018-04-01T22:29:30.348Z,0.70
2018-04-01T22:32:01.804Z,0.90
2018-04-01T22:34:33.490Z,0.90
2018-04-01T22:37:03.985Z,1.00
2018-04-01T22:39:34.426Z,1.00
2018-04-01T22:42:04.848Z,1.00
2018-04-01T22:44:35.469Z,1.10
2018-04-01T22:47:06.015Z,1.00
2018-04-01T22:49:36.394Z,1.10
2018-04-01T22:52:07.943Z,1.10
2018-04-01T22:54:39.090Z,1.10
2018-04-01T22:57:09.739Z,1.00
2018-04-01T22:59:40.516Z,1.00
2018-04-01T23:02:11.157Z,1.00
2018-04-01T23:04:41.825Z,0.90
2018-04-01T23:07:12.325Z,0.90
2018-04-01T23:09:43.720Z,1.00
2018-04-01T23:12:14.344Z,1.00
2018-04-01T23:14:44.771Z,1.00
2018-04-01T23:17:16.013Z,1.00
2018-04-01T23:19:46.606Z,1.00
2018-04-01T23:22:17.232Z,1.00
2018-04-01T23:24:47.703Z,1.00
2018-04-01T23:27:18.383Z,0.90
2018-04-01T23:29:48.747Z,0.90
2018-04-01T23:32:19.109Z,0.90
2018-04-01T23:34:49.982Z,0.90
2018-04-01T23:37:21.127Z,1.00
2018-04-01T23:39:51.586Z,0.90
2018-04-01T23:42:21.927Z,0.90
2018-04-01T23:44:52.734Z,1.00
2018-04-01T23:47:23.050Z,0.90
2018-04-01T23:49:54.430Z,0.90
2018-04-01T23:52:24.785Z,0.80
2018-04-01T23:54:55.086Z,0.80
2018-04-01T23:57:25.806Z,0.90
2018-04-01T23:59:56.137Z,0.80
